createdAt,value
2022-12-18T00:02:25.622Z,101722.00
2022-12-18T00:04:53.033Z,101729.00
2022-12-18T00:07:20.578Z,101733.00
2022-12-18T00:09:47.810Z,101753.00
2022-12-18T00:14:45.525Z,101766.00
2022-12-18T00:17:12.901Z,101773.00
2022-12-18T00:19:40.551Z,101762.00
2022-12-18T00:22:08.079Z,101771.00
2022-12-18T00:24:35.670Z,101757.00
2022-12-18T00:27:03.281Z,101762.00
2022-12-18T00:29:31.060Z,101758.00
2022-12-18T00:31:59.014Z,101763.00
2022-12-18T00:34:26.908Z,101764.00
2022-12-18T00:36:54.320Z,101775.00
2022-12-18T00:39:21.814Z,101778.00
2022-12-18T00:42:07.490Z,101774.00
2022-12-18T00:44:35.059Z,101773.00
2022-12-18T00:47:03.535Z,101782.00
2022-12-18T00:49:30.796Z,101783.00
2022-12-18T00:51:58.056Z,101784.00
2022-12-18T00:54:25.773Z,101771.00
2022-12-18T00:56:53.278Z,101775.00
2022-12-18T00:59:20.912Z,101771.00
2022-12-18T01:01:49.013Z,101777.00
2022-12-18T01:04:17.383Z,101775.00
2022-12-18T01:06:44.918Z,101775.00
2022-12-18T01:09:12.809Z,101775.00
2022-12-18T01:11:40.406Z,101785.00
2022-12-18T01:14:08.439Z,101779.00
2022-12-18T01:16:36.225Z,101794.00
2022-12-18T01:19:03.901Z,101798.00
2022-12-18T01:21:32.259Z,101795.00
2022-12-18T01:23:59.985Z,101791.00
2022-12-18T01:26:29.901Z,101800.00
2022-12-18T01:28:57.749Z,101802.00
2022-12-18T01:31:27.122Z,101793.00
2022-12-18T01:33:55.426Z,101791.00
2022-12-18T01:36:24.938Z,101800.00
2022-12-18T01:38:54.097Z,101790.00
2022-12-18T01:41:24.034Z,101799.00
2022-12-18T01:43:54.462Z,101795.00
2022-12-18T01:46:23.467Z,101799.00
2022-12-18T01:48:53.319Z,101783.00
2022-12-18T01:51:21.428Z,101800.00
2022-12-18T01:53:49.464Z,101803.00
2022-12-18T01:56:22.052Z,101799.00
2022-12-18T01:58:56.406Z,101801.00
2022-12-18T02:01:25.380Z,101803.00
2022-12-18T02:03:53.430Z,101799.00
2022-12-18T02:06:27.750Z,101789.00
2022-12-18T02:09:06.460Z,101793.00
2022-12-18T02:11:43.198Z,101798.00
2022-12-18T02:14:18.930Z,101798.00
2022-12-18T02:16:52.291Z,101790.00
2022-12-18T02:19:40.610Z,101794.00
2022-12-18T02:22:24.464Z,101794.00
2022-12-18T02:25:05.648Z,101794.00
2022-12-18T02:27:35.908Z,101808.00
2022-12-18T02:30:04.696Z,101815.00
2022-12-18T02:32:36.877Z,101805.00
2022-12-18T02:35:08.172Z,101810.00
2022-12-18T02:37:37.044Z,101811.00
2022-12-18T02:40:06.213Z,101818.00
2022-12-18T02:42:34.782Z,101810.00
2022-12-18T02:45:02.251Z,101812.00
2022-12-18T02:47:32.518Z,101812.00
2022-12-18T02:50:08.538Z,101822.00
2022-12-18T02:52:42.233Z,101823.00
2022-12-18T02:55:26.435Z,101807.00
2022-12-18T02:57:57.315Z,101807.00
2022-12-18T03:00:29.520Z,101818.00
2022-12-18T03:03:02.335Z,101810.00
2022-12-18T03:05:33.894Z,101810.00
2022-12-18T03:08:05.136Z,101807.00
2022-12-18T03:10:38.036Z,101806.00
2022-12-18T03:13:09.816Z,101816.00
2022-12-18T03:15:41.141Z,101801.00
2022-12-18T03:18:13.299Z,101821.00
2022-12-18T03:20:44.136Z,101819.00
2022-12-18T03:23:17.019Z,101825.00
2022-12-18T03:25:47.205Z,101830.00
2022-12-18T03:28:20.771Z,101823.00
2022-12-18T03:30:51.648Z,101836.00
2022-12-18T03:33:24.839Z,101831.00
2022-12-18T03:35:52.699Z,101836.00
2022-12-18T03:38:20.577Z,101832.00
2022-12-18T03:40:59.469Z,101838.00
2022-12-18T03:43:40.075Z,101840.00
2022-12-18T03:46:14.672Z,101828.00
2022-12-18T03:48:51.254Z,101837.00
2022-12-18T03:51:25.838Z,101836.00
2022-12-18T03:53:58.201Z,101833.00
2022-12-18T03:56:29.375Z,101833.00
2022-12-18T03:59:00.096Z,101834.00
2022-12-18T04:01:32.519Z,101839.00
2022-12-18T04:04:02.035Z,101850.00
2022-12-18T04:06:30.141Z,101833.00
2022-12-18T04:08:58.923Z,101846.00
2022-12-18T04:11:26.361Z,101845.00
2022-12-18T04:13:57.929Z,101845.00
2022-12-18T04:16:25.681Z,101853.00
2022-12-18T04:18:53.511Z,101859.00
2022-12-18T04:21:21.030Z,101848.00
2022-12-18T04:23:48.584Z,101849.00
2022-12-18T04:26:15.959Z,101857.00
2022-12-18T04:28:43.463Z,101859.00
2022-12-18T04:31:11.790Z,101862.00
2022-12-18T04:33:39.765Z,101853.00
2022-12-18T04:36:08.106Z,101862.00
2022-12-18T04:38:35.486Z,101856.00
2022-12-18T04:41:03.010Z,101857.00
2022-12-18T04:43:30.516Z,101859.00
2022-12-18T04:46:04.033Z,101853.00
2022-12-18T04:48:32.758Z,101856.00
2022-12-18T04:51:00.231Z,101858.00
2022-12-18T04:53:27.882Z,101854.00
2022-12-18T04:56:05.273Z,101860.00
2022-12-18T04:58:32.812Z,101869.00
2022-12-18T05:01:00.987Z,101870.00
2022-12-18T05:03:28.587Z,101858.00
2022-12-18T05:05:57.046Z,101861.00
2022-12-18T05:08:25.075Z,101857.00
2022-12-18T05:11:00.270Z,101871.00
2022-12-18T05:13:27.639Z,101864.00
2022-12-18T05:15:55.415Z,101863.00
2022-12-18T05:18:23.178Z,101871.00
2022-12-18T05:20:51.073Z,101873.00
2022-12-18T05:23:19.755Z,101877.00
2022-12-18T05:25:51.028Z,101854.00
2022-12-18T05:28:18.240Z,101854.00
2022-12-18T05:30:50.078Z,101860.00
2022-12-18T05:33:17.481Z,101856.00
2022-12-18T05:35:45.616Z,101858.00
2022-12-18T05:38:12.993Z,101870.00
2022-12-18T05:40:43.946Z,101876.00
2022-12-18T05:43:14.277Z,101865.00
2022-12-18T05:45:45.455Z,101861.00
2022-12-18T05:48:13.156Z,101873.00
2022-12-18T05:50:42.219Z,101873.00
2022-12-18T05:53:10.984Z,101858.00
2022-12-18T05:55:39.948Z,101856.00
2022-12-18T05:58:09.899Z,101859.00
2022-12-18T06:00:40.153Z,101871.00
2022-12-18T06:03:08.124Z,101865.00
2022-12-18T06:05:37.512Z,101882.00
2022-12-18T06:08:05.380Z,101890.00
2022-12-18T06:10:33.228Z,101889.00
2022-12-18T06:13:00.647Z,101891.00
2022-12-18T06:15:28.812Z,101894.00
2022-12-18T06:17:56.144Z,101899.00
2022-12-18T06:20:23.562Z,101901.00
2022-12-18T06:22:51.364Z,101903.00
2022-12-18T06:25:19.032Z,101902.00
2022-12-18T06:27:48.142Z,101912.00
2022-12-18T06:30:16.120Z,101899.00
2022-12-18T06:32:45.069Z,101905.00
2022-12-18T06:35:16.085Z,101897.00
2022-12-18T06:37:43.728Z,101906.00
2022-12-18T06:40:11.562Z,101917.00
2022-12-18T06:42:39.153Z,101910.00
2022-12-18T06:45:07.429Z,101916.00
2022-12-18T06:47:34.747Z,101918.00
2022-12-18T06:50:03.266Z,101918.00
2022-12-18T06:52:32.320Z,101929.00
2022-12-18T06:54:59.791Z,101929.00
2022-12-18T06:57:27.191Z,101932.00
2022-12-18T06:59:54.607Z,101935.00
2022-12-18T07:02:22.241Z,101926.00
2022-12-18T07:04:50.786Z,101927.00
2022-12-18T07:07:19.069Z,101931.00
2022-12-18T07:09:46.923Z,101930.00
2022-12-18T07:12:14.762Z,101930.00
2022-12-18T07:14:42.330Z,101934.00
2022-12-18T07:17:09.808Z,101935.00
2022-12-18T07:19:37.319Z,101929.00
2022-12-18T07:22:04.675Z,101931.00
2022-12-18T07:24:34.379Z,101925.00
2022-12-18T07:27:02.288Z,101935.00
2022-12-18T07:29:29.777Z,101939.00
2022-12-18T07:31:57.461Z,101949.00
2022-12-18T07:34:25.262Z,101949.00
2022-12-18T07:36:52.891Z,101944.00
2022-12-18T07:39:20.418Z,101940.00
2022-12-18T07:42:08.859Z,101946.00
2022-12-18T07:44:36.679Z,101957.00
2022-12-18T07:47:07.839Z,101957.00
2022-12-18T07:49:38.987Z,101952.00
2022-12-18T07:52:06.374Z,101955.00
2022-12-18T07:54:34.117Z,101960.00
2022-12-18T07:57:02.043Z,101961.00
2022-12-18T07:59:29.314Z,101951.00
2022-12-18T08:01:56.790Z,101962.00
2022-12-18T08:04:24.332Z,101951.00
2022-12-18T08:06:52.055Z,101950.00
2022-12-18T08:09:19.450Z,101937.00
2022-12-18T08:11:47.025Z,101958.00
2022-12-18T08:14:15.659Z,101955.00
2022-12-18T08:16:43.245Z,101952.00
2022-12-18T08:19:10.965Z,101948.00
2022-12-18T08:21:38.829Z,101950.00
2022-12-18T08:24:07.371Z,101946.00
2022-12-18T08:26:35.069Z,101955.00
2022-12-18T08:29:02.816Z,101952.00
2022-12-18T08:31:32.065Z,101954.00
2022-12-18T08:33:59.722Z,101956.00
2022-12-18T08:36:27.298Z,101960.00
2022-12-18T08:38:55.017Z,101954.00
2022-12-18T08:41:22.681Z,101953.00
2022-12-18T08:44:08.748Z,101957.00
2022-12-18T08:46:38.968Z,101956.00
2022-12-18T08:49:07.577Z,101959.00
2022-12-18T08:51:36.365Z,101957.00
2022-12-18T08:54:05.144Z,101961.00
2022-12-18T08:56:34.480Z,101965.00
2022-12-18T08:59:02.778Z,101966.00
2022-12-18T09:01:30.590Z,101966.00
2022-12-18T09:04:00.049Z,101960.00
2022-12-18T09:06:28.140Z,101958.00
2022-12-18T09:08:55.646Z,101959.00
2022-12-18T09:11:24.975Z,101972.00
2022-12-18T09:13:52.880Z,101988.00
2022-12-18T09:16:21.320Z,101987.00
2022-12-18T09:18:49.044Z,101987.00
2022-12-18T09:21:19.254Z,101992.00
2022-12-18T09:23:51.375Z,101997.00
2022-12-18T09:26:19.140Z,101987.00
2022-12-18T09:28:46.474Z,101982.00
2022-12-18T09:31:16.646Z,101983.00
2022-12-18T09:33:45.437Z,101988.00
2022-12-18T09:36:15.396Z,101994.00
2022-12-18T09:38:44.259Z,101980.00
2022-12-18T09:41:26.023Z,101980.00
2022-12-18T09:43:59.281Z,101985.00
2022-12-18T09:46:30.679Z,101987.00
2022-12-18T09:49:02.124Z,101976.00
2022-12-18T09:51:35.080Z,101957.00
2022-12-18T09:54:07.800Z,101973.00
2022-12-18T09:56:40.580Z,101967.00
2022-12-18T09:59:16.562Z,101962.00
2022-12-18T10:01:44.709Z,101960.00
2022-12-18T10:04:14.517Z,101948.00
2022-12-18T10:06:48.250Z,101942.00
2022-12-18T10:09:24.920Z,101938.00
2022-12-18T10:12:03.819Z,101935.00
2022-12-18T10:14:41.024Z,101930.00
2022-12-18T10:17:21.539Z,101921.00
2022-12-18T10:19:54.188Z,101919.00
2022-12-18T10:22:45.832Z,101904.00
2022-12-18T10:25:22.766Z,101912.00
2022-12-18T10:27:54.581Z,101905.00
2022-12-18T10:30:24.552Z,101907.00
2022-12-18T10:32:52.688Z,101901.00
2022-12-18T10:35:22.567Z,101895.00
2022-12-18T10:38:20.814Z,101893.00
2022-12-18T10:40:53.680Z,101901.00
2022-12-18T10:43:26.603Z,101886.00
2022-12-18T10:46:03.194Z,101885.00
2022-12-18T10:48:32.555Z,101888.00
2022-12-18T10:51:15.846Z,101880.00
2022-12-18T10:53:51.961Z,101891.00
2022-12-18T10:56:22.222Z,101885.00
2022-12-18T10:58:58.942Z,101864.00
2022-12-18T11:01:29.838Z,101871.00
2022-12-18T11:04:08.833Z,101870.00
2022-12-18T11:06:55.982Z,101874.00
2022-12-18T11:09:25.535Z,101870.00
2022-12-18T11:11:56.180Z,101863.00
2022-12-18T11:14:26.670Z,101848.00
2022-12-18T11:17:24.996Z,101840.00
2022-12-18T11:19:44.440Z,101851.00
2022-12-18T11:22:22.665Z,101847.00
2022-12-18T11:25:30.153Z,101842.00
2022-12-18T11:27:51.831Z,101847.00
2022-12-18T11:30:24.224Z,101854.00
2022-12-18T11:32:55.154Z,101847.00
2022-12-18T11:35:38.231Z,101847.00
2022-12-18T11:38:13.504Z,101833.00
2022-12-18T11:40:45.475Z,101847.00
2022-12-18T11:43:18.657Z,101846.00
2022-12-18T11:45:56.426Z,101857.00
2022-12-18T11:48:28.423Z,101859.00
2022-12-18T11:50:57.784Z,101859.00
2022-12-18T11:53:27.443Z,101852.00
2022-12-18T11:56:06.823Z,101849.00
2022-12-18T11:58:48.872Z,101862.00
2022-12-18T12:01:40.366Z,101869.00
2022-12-18T12:04:47.550Z,101878.00
2022-12-18T12:07:25.015Z,101870.00
2022-12-18T12:10:01.525Z,101875.00
2022-12-18T12:12:48.607Z,101862.00
2022-12-18T12:15:31.077Z,101870.00
2022-12-18T12:18:11.687Z,101882.00
2022-12-18T12:21:06.540Z,101890.00
2022-12-18T12:23:47.092Z,101889.00
2022-12-18T12:26:24.299Z,101894.00
2022-12-18T12:29:03.591Z,101895.00
2022-12-18T12:31:49.238Z,101907.00
2022-12-18T12:34:29.150Z,101905.00
2022-12-18T12:37:19.531Z,101918.00
2022-12-18T12:39:51.449Z,101912.00
2022-12-18T12:42:47.367Z,101892.00
2022-12-18T12:45:22.679Z,101877.00
2022-12-18T12:47:53.031Z,101881.00
2022-12-18T12:50:22.133Z,101873.00
2022-12-18T12:52:52.542Z,101874.00
2022-12-18T12:55:23.734Z,101884.00
2022-12-18T12:57:59.786Z,101870.00
2022-12-18T13:00:32.204Z,101863.00
2022-12-18T13:03:07.565Z,101864.00
2022-12-18T13:05:45.187Z,101876.00
2022-12-18T13:08:24.641Z,101874.00
2022-12-18T13:11:16.406Z,101861.00
2022-12-18T13:13:52.087Z,101857.00
2022-12-18T13:16:21.688Z,101852.00
2022-12-18T13:18:54.631Z,101861.00
2022-12-18T13:21:27.387Z,101856.00
2022-12-18T13:23:55.956Z,101870.00
2022-12-18T13:26:34.419Z,101873.00
2022-12-18T13:29:04.474Z,101870.00
2022-12-18T13:32:08.747Z,101871.00
2022-12-18T13:34:37.605Z,101870.00
2022-12-18T13:37:41.636Z,101875.00
2022-12-18T13:40:57.416Z,101860.00
2022-12-18T13:43:34.401Z,101859.00
2022-12-18T13:46:17.405Z,101857.00
2022-12-18T13:48:55.870Z,101863.00
2022-12-18T13:51:25.648Z,101860.00
2022-12-18T13:53:55.121Z,101864.00
2022-12-18T13:56:24.866Z,101873.00
2022-12-18T13:59:17.838Z,101860.00
2022-12-18T14:05:49.721Z,101872.00
2022-12-18T14:08:24.617Z,101879.00
2022-12-18T14:14:34.955Z,101859.00
2022-12-18T14:17:02.720Z,101849.00
2022-12-18T14:19:30.292Z,101831.00
2022-12-18T14:21:57.556Z,101853.00
2022-12-18T14:24:25.607Z,101853.00
2022-12-18T14:26:52.931Z,101844.00
2022-12-18T14:29:23.957Z,101844.00
2022-12-18T14:32:14.940Z,101834.00
2022-12-18T14:34:44.932Z,101825.00
2022-12-18T14:37:13.878Z,101846.00
2022-12-18T14:39:52.283Z,101843.00
2022-12-18T14:42:19.527Z,101830.00
2022-12-18T14:47:34.088Z,101839.00
2022-12-18T14:50:01.576Z,101842.00
2022-12-18T14:52:32.252Z,101844.00
2022-12-18T14:55:00.280Z,101841.00
2022-12-18T14:57:35.461Z,101834.00
2022-12-18T15:00:06.758Z,101835.00
2022-12-18T15:02:37.587Z,101829.00
2022-12-18T15:05:16.869Z,101835.00
2022-12-18T15:07:46.137Z,101839.00
2022-12-18T15:10:16.177Z,101844.00
2022-12-18T15:12:44.645Z,101847.00
2022-12-18T15:15:45.339Z,101845.00
2022-12-18T15:18:17.111Z,101823.00
2022-12-18T15:20:48.470Z,101816.00
2022-12-18T15:23:21.060Z,101823.00
2022-12-18T15:25:55.038Z,101830.00
2022-12-18T15:28:26.051Z,101814.00
2022-12-18T15:31:04.557Z,101818.00
2022-12-18T15:33:34.908Z,101816.00
2022-12-18T15:36:07.974Z,101804.00
2022-12-18T15:38:35.840Z,101801.00
2022-12-18T15:41:04.099Z,101808.00
2022-12-18T15:43:35.249Z,101804.00
2022-12-18T15:46:04.237Z,101804.00
2022-12-18T15:48:33.206Z,101815.00
2022-12-18T15:51:00.673Z,101817.00
2022-12-18T15:53:32.746Z,101811.00
2022-12-18T15:56:18.302Z,101811.00
2022-12-18T15:58:46.231Z,101804.00
2022-12-18T16:01:26.778Z,101807.00
2022-12-18T16:03:54.351Z,101789.00
2022-12-18T16:06:21.717Z,101793.00
2022-12-18T16:08:49.967Z,101800.00
2022-12-18T16:11:38.008Z,101796.00
2022-12-18T16:14:11.907Z,101800.00
2022-12-18T16:16:39.562Z,101798.00
2022-12-18T16:19:06.843Z,101789.00
2022-12-18T16:21:34.431Z,101799.00
2022-12-18T16:24:01.695Z,101801.00
2022-12-18T16:26:28.971Z,101789.00
2022-12-18T16:28:56.576Z,101804.00
2022-12-18T16:31:25.424Z,101800.00
2022-12-18T16:34:10.800Z,101799.00
2022-12-18T16:36:38.015Z,101793.00
2022-12-18T16:39:05.613Z,101789.00
2022-12-18T16:41:33.238Z,101784.00
2022-12-18T16:44:00.733Z,101785.00
2022-12-18T16:46:28.775Z,101785.00
2022-12-18T16:48:57.749Z,101777.00
2022-12-18T16:51:25.197Z,101785.00
2022-12-18T16:53:52.954Z,101789.00
2022-12-18T16:56:20.261Z,101785.00
2022-12-18T16:58:51.967Z,101781.00
2022-12-18T17:01:19.845Z,101774.00
2022-12-18T17:03:53.704Z,101781.00
2022-12-18T17:06:21.281Z,101785.00
2022-12-18T17:08:49.217Z,101761.00
2022-12-18T17:11:16.475Z,101778.00
2022-12-18T17:13:43.858Z,101777.00
2022-12-18T17:16:11.608Z,101782.00
2022-12-18T17:18:39.262Z,101779.00
2022-12-18T17:21:08.872Z,101787.00
2022-12-18T17:23:36.641Z,101776.00
2022-12-18T17:26:06.504Z,101776.00
2022-12-18T17:28:34.745Z,101767.00
2022-12-18T17:31:02.407Z,101775.00
2022-12-18T17:33:29.705Z,101772.00
2022-12-18T17:35:59.668Z,101776.00
2022-12-18T17:38:27.657Z,101779.00
2022-12-18T17:41:00.840Z,101775.00
2022-12-18T17:43:28.618Z,101775.00
2022-12-18T17:45:57.535Z,101760.00
2022-12-18T17:48:27.553Z,101761.00
2022-12-18T17:50:56.476Z,101749.00
2022-12-18T17:53:24.336Z,101757.00
2022-12-18T17:55:55.471Z,101745.00
2022-12-18T17:58:22.954Z,101745.00
2022-12-18T18:00:51.285Z,101750.00
2022-12-18T18:03:21.949Z,101748.00
2022-12-18T18:05:49.416Z,101736.00
2022-12-18T18:08:16.717Z,101740.00
2022-12-18T18:10:49.040Z,101734.00
2022-12-18T18:13:43.347Z,101732.00
2022-12-18T18:16:13.985Z,101728.00
2022-12-18T18:18:43.027Z,101720.00
2022-12-18T18:21:11.863Z,101721.00
2022-12-18T18:23:41.965Z,101732.00
2022-12-18T18:26:11.803Z,101724.00
2022-12-18T18:28:41.493Z,101726.00
2022-12-18T18:31:10.822Z,101717.00
2022-12-18T18:33:38.795Z,101715.00
2022-12-18T18:36:10.887Z,101713.00
2022-12-18T18:38:39.023Z,101709.00
2022-12-18T18:41:07.227Z,101703.00
2022-12-18T18:43:34.933Z,101690.00
2022-12-18T18:46:04.326Z,101692.00
2022-12-18T18:48:34.950Z,101683.00
2022-12-18T18:51:06.551Z,101691.00
2022-12-18T18:53:37.665Z,101685.00
2022-12-18T18:56:45.498Z,101680.00
2022-12-18T18:58:52.692Z,101671.00
2022-12-18T19:01:21.721Z,101667.00
2022-12-18T19:03:49.869Z,101670.00
2022-12-18T19:06:19.211Z,101674.00
2022-12-18T19:08:48.519Z,101679.00
2022-12-18T19:11:36.607Z,101685.00
2022-12-18T19:14:06.703Z,101671.00
2022-12-18T19:16:35.585Z,101659.00
2022-12-18T19:19:03.666Z,101656.00
2022-12-18T19:21:33.388Z,101656.00
2022-12-18T19:24:02.533Z,101656.00
2022-12-18T19:26:30.368Z,101645.00
2022-12-18T19:29:01.862Z,101651.00
2022-12-18T19:31:34.773Z,101639.00
2022-12-18T19:34:06.405Z,101624.00
2022-12-18T19:36:35.345Z,101623.00
2022-12-18T19:39:07.425Z,101613.00
2022-12-18T19:41:34.992Z,101601.00
2022-12-18T19:44:07.804Z,101607.00
2022-12-18T19:46:42.317Z,101618.00
2022-12-18T19:49:11.854Z,101607.00
2022-12-18T19:51:45.464Z,101623.00
2022-12-18T19:54:17.103Z,101624.00
2022-12-18T19:56:47.562Z,101623.00
2022-12-18T19:59:15.309Z,101615.00
2022-12-18T20:01:42.951Z,101623.00
2022-12-18T20:04:12.292Z,101612.00
2022-12-18T20:06:49.104Z,101616.00
2022-12-18T20:09:18.185Z,101599.00
2022-12-18T20:11:49.905Z,101603.00
2022-12-18T20:14:22.486Z,101617.00
2022-12-18T20:16:51.806Z,101612.00
2022-12-18T20:19:20.268Z,101617.00
2022-12-18T20:21:47.989Z,101615.00
2022-12-18T20:24:15.238Z,101608.00
2022-12-18T20:26:42.685Z,101603.00
2022-12-18T20:29:09.973Z,101602.00
2022-12-18T20:31:37.282Z,101602.00
2022-12-18T20:34:04.993Z,101608.00
2022-12-18T20:36:36.232Z,101604.00
2022-12-18T20:39:06.528Z,101584.00
2022-12-18T20:41:38.135Z,101577.00
2022-12-18T20:44:21.674Z,101574.00
2022-12-18T20:46:52.274Z,101572.00
2022-12-18T20:49:19.620Z,101563.00
2022-12-18T20:51:51.002Z,101576.00
2022-12-18T20:54:18.299Z,101585.00
2022-12-18T20:56:45.702Z,101584.00
2022-12-18T20:59:12.954Z,101582.00
2022-12-18T21:01:41.000Z,101579.00
2022-12-18T21:04:15.632Z,101573.00
2022-12-18T21:06:51.252Z,101574.00
2022-12-18T21:09:20.633Z,101576.00
2022-12-18T21:12:06.132Z,101588.00
2022-12-18T21:14:33.434Z,101583.00
2022-12-18T21:17:01.248Z,101585.00
2022-12-18T21:19:28.894Z,101574.00
2022-12-18T21:21:57.436Z,101565.00
2022-12-18T21:24:24.947Z,101559.00
2022-12-18T21:26:52.708Z,101579.00
2022-12-18T21:29:21.858Z,101577.00
2022-12-18T21:31:49.421Z,101575.00
2022-12-18T21:34:19.284Z,101576.00
2022-12-18T21:36:46.863Z,101569.00
2022-12-18T21:39:15.869Z,101573.00
2022-12-18T21:42:01.804Z,101572.00
2022-12-18T21:44:29.147Z,101566.00
2022-12-18T21:47:02.450Z,101576.00
2022-12-18T21:49:36.815Z,101561.00
2022-12-18T21:52:04.387Z,101551.00
2022-12-18T21:54:32.364Z,101551.00
2022-12-18T21:57:01.658Z,101537.00
2022-12-18T21:59:31.629Z,101547.00
2022-12-18T22:02:01.098Z,101561.00
2022-12-18T22:04:28.905Z,101553.00
2022-12-18T22:06:57.217Z,101559.00
2022-12-18T22:09:25.474Z,101556.00
2022-12-18T22:11:53.767Z,101536.00
2022-12-18T22:14:22.507Z,101543.00
2022-12-18T22:16:50.584Z,101538.00
2022-12-18T22:19:18.787Z,101543.00
2022-12-18T22:21:47.938Z,101545.00
2022-12-18T22:24:17.718Z,101542.00
2022-12-18T22:26:46.799Z,101541.00
2022-12-18T22:29:34.707Z,101525.00
2022-12-18T22:32:02.739Z,101521.00
2022-12-18T22:34:34.246Z,101514.00
2022-12-18T22:37:03.854Z,101518.00
2022-12-18T22:39:31.803Z,101509.00
2022-12-18T22:41:59.510Z,101521.00
2022-12-18T22:44:27.577Z,101522.00
2022-12-18T22:47:06.487Z,101512.00
2022-12-18T22:49:35.833Z,101505.00
2022-12-18T22:52:04.242Z,101484.00
2022-12-18T22:54:31.576Z,101492.00
2022-12-18T22:56:58.870Z,101486.00
2022-12-18T22:59:26.845Z,101486.00
2022-12-18T23:01:57.102Z,101480.00
2022-12-18T23:04:27.978Z,101492.00
2022-12-18T23:06:58.547Z,101484.00
2022-12-18T23:09:25.836Z,101486.00
2022-12-18T23:11:53.117Z,101477.00
2022-12-18T23:14:20.775Z,101462.00
2022-12-18T23:16:49.226Z,101451.00
2022-12-18T23:19:18.734Z,101452.00
2022-12-18T23:21:46.381Z,101443.00
2022-12-18T23:24:13.818Z,101433.00
2022-12-18T23:26:41.594Z,101424.00
2022-12-18T23:29:08.852Z,101415.00
2022-12-18T23:31:37.797Z,101418.00
2022-12-18T23:34:06.672Z,101410.00
2022-12-18T23:36:43.872Z,101405.00
2022-12-18T23:39:24.379Z,101402.00
2022-12-18T23:41:57.635Z,101403.00
2022-12-18T23:44:25.249Z,101413.00
2022-12-18T23:46:52.569Z,101417.00
2022-12-18T23:49:20.649Z,101414.00
2022-12-18T23:51:48.089Z,101388.00
2022-12-18T23:54:15.556Z,101384.00
2022-12-18T23:56:43.107Z,101375.00
2022-12-18T23:59:10.620Z,101366.00
